sensor_id;sensor_type;location;lat;lon;timestamp;pressure;altitude;pressure_sealevel;temperature;humidity
84255;BME280;74400;44.692;18.998;2024-02-04T00:01:18;100483.88;;;4.85;66.55
84255;BME280;74400;44.692;18.998;2024-02-04T00:03:44;100477.13;;;4.84;66.00
84255;BME280;74400;44.692;18.998;2024-02-04T00:06:10;100483.06;;;4.83;66.79
84255;BME280;74400;44.692;18.998;2024-02-04T00:08:36;100483.94;;;4.83;67.02
84255;BME280;74400;44.692;18.998;2024-02-04T00:11:02;100480.25;;;4.92;66.71
84255;BME280;74400;44.692;18.998;2024-02-04T00:13:30;100479.72;;;5.07;65.50
84255;BME280;74400;44.692;18.998;2024-02-04T00:15:56;100487.56;;;5.01;65.78
84255;BME280;74400;44.692;18.998;2024-02-04T00:18:24;100481.50;;;5.05;65.75
84255;BME280;74400;44.692;18.998;2024-02-04T00:20:50;100489.09;;;5.07;65.86
84255;BME280;74400;44.692;18.998;2024-02-04T00:23:15;100483.38;;;5.00;66.42
84255;BME280;74400;44.692;18.998;2024-02-04T00:25:41;100481.69;;;4.99;65.92
84255;BME280;74400;44.692;18.998;2024-02-04T00:28:07;100481.69;;;4.99;66.11
84255;BME280;74400;44.692;18.998;2024-02-04T00:30:37;100478.38;;;4.97;66.40
84255;BME280;74400;44.692;18.998;2024-02-04T00:33:04;100479.09;;;5.01;65.74
84255;BME280;74400;44.692;18.998;2024-02-04T00:35:30;100477.97;;;5.09;65.63
84255;BME280;74400;44.692;18.998;2024-02-04T00:37:56;100481.34;;;5.10;66.03
84255;BME280;74400;44.692;18.998;2024-02-04T00:40:41;100490.72;;;5.09;66.23
84255;BME280;74400;44.692;18.998;2024-02-04T00:43:07;100487.56;;;5.01;66.61
84255;BME280;74400;44.692;18.998;2024-02-04T00:45:33;100479.41;;;4.92;66.71
84255;BME280;74400;44.692;18.998;2024-02-04T00:47:59;100483.47;;;4.97;66.49
84255;BME280;74400;44.692;18.998;2024-02-04T00:50:24;100483.22;;;5.05;66.07
84255;BME280;74400;44.692;18.998;2024-02-04T00:52:50;100487.16;;;5.13;66.01
84255;BME280;74400;44.692;18.998;2024-02-04T00:55:17;100487.03;;;5.18;65.12
84255;BME280;74400;44.692;18.998;2024-02-04T00:57:43;100488.78;;;5.16;65.27
84255;BME280;74400;44.692;18.998;2024-02-04T01:00:09;100494.72;;;5.16;65.69
84255;BME280;74400;44.692;18.998;2024-02-04T01:02:35;100488.69;;;5.19;65.48
84255;BME280;74400;44.692;18.998;2024-02-04T01:05:00;100481.72;;;5.24;66.09
84255;BME280;74400;44.692;18.998;2024-02-04T01:07:26;100478.22;;;5.27;65.62
84255;BME280;74400;44.692;18.998;2024-02-04T01:09:52;100470.34;;;5.33;65.67
84255;BME280;74400;44.692;18.998;2024-02-04T01:12:18;100467.03;;;5.31;65.68
84255;BME280;74400;44.692;18.998;2024-02-04T01:14:44;100463.72;;;5.29;66.00
84255;BME280;74400;44.692;18.998;2024-02-04T01:17:10;100464.25;;;5.37;66.07
84255;BME280;74400;44.692;18.998;2024-02-04T01:19:35;100460.44;;;5.49;65.70
84255;BME280;74400;44.692;18.998;2024-02-04T01:22:01;100459.56;;;5.50;65.03
84255;BME280;74400;44.692;18.998;2024-02-04T01:24:27;100467.88;;;5.55;64.82
84255;BME280;74400;44.692;18.998;2024-02-04T01:29:19;100465.13;;;5.61;64.49
84255;BME280;74400;44.692;18.998;2024-02-04T01:31:45;100447.25;;;5.61;64.68
84255;BME280;74400;44.692;18.998;2024-02-04T01:34:10;100452.28;;;5.62;64.89
84255;BME280;74400;44.692;18.998;2024-02-04T01:36:37;100437.59;;;5.69;64.44
84255;BME280;74400;44.692;18.998;2024-02-04T01:39:03;100434.97;;;5.70;64.41
84255;BME280;74400;44.692;18.998;2024-02-04T01:41:30;100428.97;;;5.71;64.81
84255;BME280;74400;44.692;18.998;2024-02-04T01:43:56;100427.16;;;5.75;64.59
84255;BME280;74400;44.692;18.998;2024-02-04T01:46:22;100433.09;;;5.76;64.38
84255;BME280;74400;44.692;18.998;2024-02-04T01:48:48;100439.03;;;5.76;63.91
84255;BME280;74400;44.692;18.998;2024-02-04T01:51:16;100443.25;;;5.77;64.39
84255;BME280;74400;44.692;18.998;2024-02-04T01:53:44;100444.06;;;5.78;64.64
84255;BME280;74400;44.692;18.998;2024-02-04T01:56:12;100432.13;;;5.78;64.22
84255;BME280;74400;44.692;18.998;2024-02-04T01:58:39;100424.53;;;5.77;65.08
84255;BME280;74400;44.692;18.998;2024-02-04T02:01:05;100419.59;;;5.72;65.06
84255;BME280;74400;44.692;18.998;2024-02-04T02:03:31;100413.88;;;5.67;65.83
84255;BME280;74400;44.692;18.998;2024-02-04T02:05:58;100414.41;;;5.75;65.48
84255;BME280;74400;44.692;18.998;2024-02-04T02:08:24;100415.00;;;5.82;64.91
84255;BME280;74400;44.692;18.998;2024-02-04T02:13:27;100416.00;;;5.78;64.86
84255;BME280;74400;44.692;18.998;2024-02-04T02:16:05;100418.09;;;5.90;64.44
84255;BME280;74400;44.692;18.998;2024-02-04T02:18:38;100421.28;;;5.96;64.16
84255;BME280;74400;44.692;18.998;2024-02-04T02:26:51;100410.41;;;5.91;64.47
84255;BME280;74400;44.692;18.998;2024-02-04T02:29:19;100397.41;;;5.97;64.61
84255;BME280;74400;44.692;18.998;2024-02-04T02:31:46;100397.06;;;6.07;63.96
84255;BME280;74400;44.692;18.998;2024-02-04T02:34:12;100392.13;;;6.02;64.40
84255;BME280;74400;44.692;18.998;2024-02-04T02:36:45;100388.06;;;5.96;64.35
84255;BME280;74400;44.692;18.998;2024-02-04T02:39:18;100394.81;;;5.99;64.36
84255;BME280;74400;44.692;18.998;2024-02-04T02:41:49;100394.59;;;6.04;64.50
84255;BME280;74400;44.692;18.998;2024-02-04T02:44:17;100395.66;;;5.98;65.72
84255;BME280;74400;44.692;18.998;2024-02-04T02:46:45;100403.75;;;5.86;65.42
84255;BME280;74400;44.692;18.998;2024-02-04T02:49:12;100409.75;;;5.85;65.29
84255;BME280;74400;44.692;18.998;2024-02-04T02:51:38;100410.34;;;5.93;65.25
84255;BME280;74400;44.692;18.998;2024-02-04T02:54:03;100411.66;;;6.03;64.67
84255;BME280;74400;44.692;18.998;2024-02-04T02:56:29;100411.41;;;6.09;64.24
84255;BME280;74400;44.692;18.998;2024-02-04T02:58:55;100405.25;;;6.15;64.67
84255;BME280;74400;44.692;18.998;2024-02-04T03:01:21;100407.13;;;6.32;63.93
84255;BME280;74400;44.692;18.998;2024-02-04T03:03:47;100412.28;;;6.30;63.84
84255;BME280;74400;44.692;18.998;2024-02-04T03:06:12;100399.66;;;6.27;63.46
84255;BME280;74400;44.692;18.998;2024-02-04T03:08:38;100393.53;;;6.31;63.63
84255;BME280;74400;44.692;18.998;2024-02-04T03:11:03;100394.41;;;6.30;64.08
84255;BME280;74400;44.692;18.998;2024-02-04T03:13:29;100385.88;;;6.31;63.73
84255;BME280;74400;44.692;18.998;2024-02-04T03:15:55;100382.03;;;6.41;64.22
84255;BME280;74400;44.692;18.998;2024-02-04T03:18:21;100386.47;;;6.38;64.39
84255;BME280;74400;44.692;18.998;2024-02-04T03:20:47;100389.63;;;6.43;63.32
84255;BME280;74400;44.692;18.998;2024-02-04T03:23:13;100388.94;;;6.39;63.32
84255;BME280;74400;44.692;18.998;2024-02-04T03:25:39;100388.44;;;6.31;63.91
84255;BME280;74400;44.692;18.998;2024-02-04T03:28:05;100378.50;;;6.23;63.82
84255;BME280;74400;44.692;18.998;2024-02-04T03:30:30;100376.97;;;6.19;63.92
84255;BME280;74400;44.692;18.998;2024-02-04T03:32:56;100371.28;;;6.13;64.01
84255;BME280;74400;44.692;18.998;2024-02-04T03:35:22;100373.09;;;6.09;64.83
84255;BME280;74400;44.692;18.998;2024-02-04T03:37:47;100375.06;;;6.03;64.93
84255;BME280;74400;44.692;18.998;2024-02-04T03:40:13;100378.03;;;5.92;65.02
84255;BME280;74400;44.692;18.998;2024-02-04T03:42:39;100369.75;;;5.85;66.06
84255;BME280;74400;44.692;18.998;2024-02-04T03:45:06;100377.41;;;5.85;65.94
84255;BME280;74400;44.692;18.998;2024-02-04T03:47:32;100374.66;;;5.91;66.08
84255;BME280;74400;44.692;18.998;2024-02-04T03:49:57;100369.97;;;6.03;65.48
84255;BME280;74400;44.692;18.998;2024-02-04T03:52:23;100358.63;;;6.10;64.88
84255;BME280;74400;44.692;18.998;2024-02-04T03:54:49;100360.34;;;6.09;64.89
84255;BME280;74400;44.692;18.998;2024-02-04T03:57:15;100358.09;;;6.02;65.57
84255;BME280;74400;44.692;18.998;2024-02-04T03:59:44;100354.06;;;5.96;65.45
84255;BME280;74400;44.692;18.998;2024-02-04T04:02:12;100361.84;;;5.93;65.79
84255;BME280;74400;44.692;18.998;2024-02-04T04:04:40;100356.69;;;5.94;65.50
84255;BME280;74400;44.692;18.998;2024-02-04T04:07:07;100354.19;;;5.93;65.75
84255;BME280;74400;44.692;18.998;2024-02-04T04:09:32;100362.63;;;5.95;65.62
84255;BME280;74400;44.692;18.998;2024-02-04T04:11:58;100353.97;;;5.99;65.31
84255;BME280;74400;44.692;18.998;2024-02-04T04:14:24;100354.72;;;6.01;65.52
84255;BME280;74400;44.692;18.998;2024-02-04T04:16:49;100344.50;;;6.01;65.42
84255;BME280;74400;44.692;18.998;2024-02-04T04:19:15;100353.97;;;5.99;65.78
84255;BME280;74400;44.692;18.998;2024-02-04T04:21:41;100357.06;;;5.84;66.25
84255;BME280;74400;44.692;18.998;2024-02-04T04:24:06;100349.88;;;5.71;67.26
84255;BME280;74400;44.692;18.998;2024-02-04T04:26:32;100356.41;;;5.79;67.09
84255;BME280;74400;44.692;18.998;2024-02-04T04:28:59;100353.75;;;5.82;66.99
84255;BME280;74400;44.692;18.998;2024-02-04T04:31:24;100363.88;;;5.83;66.47
84255;BME280;74400;44.692;18.998;2024-02-04T04:33:50;100373.19;;;5.84;66.32
84255;BME280;74400;44.692;18.998;2024-02-04T04:36:18;100383.25;;;5.89;65.49
84255;BME280;74400;44.692;18.998;2024-02-04T04:38:44;100387.31;;;5.94;65.85
84255;BME280;74400;44.692;18.998;2024-02-04T04:41:09;100387.78;;;6.04;65.88
84255;BME280;74400;44.692;18.998;2024-02-04T04:43:38;100384.16;;;6.10;65.80
84255;BME280;74400;44.692;18.998;2024-02-04T04:46:04;100383.00;;;6.17;65.28
84255;BME280;74400;44.692;18.998;2024-02-04T04:48:29;100367.34;;;6.26;64.87
84255;BME280;74400;44.692;18.998;2024-02-04T04:50:55;100368.28;;;6.23;65.80
84255;BME280;74400;44.692;18.998;2024-02-04T04:53:21;100359.09;;;6.19;65.51
84255;BME280;74400;44.692;18.998;2024-02-04T04:55:46;100355.50;;;6.23;65.67
84255;BME280;74400;44.692;18.998;2024-02-04T04:58:12;100365.72;;;6.23;65.30
84255;BME280;74400;44.692;18.998;2024-02-04T05:00:37;100366.50;;;6.26;65.24
84255;BME280;74400;44.692;18.998;2024-02-04T05:03:04;100369.81;;;6.28;64.77
84255;BME280;74400;44.692;18.998;2024-02-04T05:05:30;100373.13;;;6.30;64.46
84255;BME280;74400;44.692;18.998;2024-02-04T05:07:55;100369.31;;;6.19;64.84
84255;BME280;74400;44.692;18.998;2024-02-04T05:10:21;100376.25;;;6.16;65.35
84255;BME280;74400;44.692;18.998;2024-02-04T05:12:46;100379.84;;;6.12;64.37
84255;BME280;74400;44.692;18.998;2024-02-04T05:15:12;100391.00;;;6.09;64.66
84255;BME280;74400;44.692;18.998;2024-02-04T05:17:38;100392.72;;;6.09;65.13
84255;BME280;74400;44.692;18.998;2024-02-04T05:20:04;100390.88;;;6.12;64.85
84255;BME280;74400;44.692;18.998;2024-02-04T05:22:30;100380.69;;;6.11;65.37
84255;BME280;74400;44.692;18.998;2024-02-04T05:24:56;100378.72;;;6.17;65.57
84255;BME280;74400;44.692;18.998;2024-02-04T05:27:22;100374.47;;;6.18;65.52
84255;BME280;74400;44.692;18.998;2024-02-04T05:29:47;100371.44;;;6.08;66.30
84255;BME280;74400;44.692;18.998;2024-02-04T05:32:13;100369.28;;;5.99;66.10
84255;BME280;74400;44.692;18.998;2024-02-04T05:34:38;100371.75;;;6.01;65.69
84255;BME280;74400;44.692;18.998;2024-02-04T05:37:04;100377.53;;;6.06;65.74
84255;BME280;74400;44.692;18.998;2024-02-04T05:39:30;100376.66;;;6.05;66.48
84255;BME280;74400;44.692;18.998;2024-02-04T05:41:55;100379.94;;;6.09;65.64
84255;BME280;74400;44.692;18.998;2024-02-04T05:44:21;100371.38;;;6.10;66.02
84255;BME280;74400;44.692;18.998;2024-02-04T05:46:46;100385.88;;;6.09;66.60
84255;BME280;74400;44.692;18.998;2024-02-04T05:49:12;100368.53;;;6.17;66.37
84255;BME280;74400;44.692;18.998;2024-02-04T05:51:38;100372.44;;;6.26;65.77
84255;BME280;74400;44.692;18.998;2024-02-04T05:54:08;100374.66;;;6.13;66.48
84255;BME280;74400;44.692;18.998;2024-02-04T05:56:34;100365.00;;;6.00;66.78
84255;BME280;74400;44.692;18.998;2024-02-04T05:58:59;100361.63;;;5.99;66.71
84255;BME280;74400;44.692;18.998;2024-02-04T06:01:25;100353.88;;;6.01;66.61
84255;BME280;74400;44.692;18.998;2024-02-04T06:03:51;100354.88;;;5.96;66.55
84255;BME280;74400;44.692;18.998;2024-02-04T06:06:17;100359.44;;;5.88;66.32
84255;BME280;74400;44.692;18.998;2024-02-04T06:08:46;100365.00;;;5.76;67.19
84255;BME280;74400;44.692;18.998;2024-02-04T06:11:13;100391.06;;;5.62;67.20
84255;BME280;74400;44.692;18.998;2024-02-04T06:13:40;100402.09;;;5.63;67.00
84255;BME280;74400;44.692;18.998;2024-02-04T06:16:06;100410.50;;;5.65;67.38
84255;BME280;74400;44.692;18.998;2024-02-04T06:18:32;100411.31;;;5.67;67.64
84255;BME280;74400;44.692;18.998;2024-02-04T06:20:58;100392.84;;;5.60;68.00
84255;BME280;74400;44.692;18.998;2024-02-04T06:23:24;100406.47;;;5.59;67.40
84255;BME280;74400;44.692;18.998;2024-02-04T06:25:49;100402.41;;;5.54;67.68
84255;BME280;74400;44.692;18.998;2024-02-04T06:28:15;100398.66;;;5.64;67.33
84255;BME280;74400;44.692;18.998;2024-02-04T06:30:41;100394.81;;;5.76;68.20
84255;BME280;74400;44.692;18.998;2024-02-04T06:33:06;100408.34;;;5.78;67.66
84255;BME280;74400;44.692;18.998;2024-02-04T06:35:32;100412.84;;;5.71;67.44
84255;BME280;74400;44.692;18.998;2024-02-04T06:37:58;100411.31;;;5.89;67.85
84255;BME280;74400;44.692;18.998;2024-02-04T06:40:23;100417.88;;;5.96;67.37
84255;BME280;74400;44.692;18.998;2024-02-04T06:42:49;100423.13;;;5.93;67.05
84255;BME280;74400;44.692;18.998;2024-02-04T06:45:15;100424.09;;;5.89;66.92
84255;BME280;74400;44.692;18.998;2024-02-04T06:47:43;100426.88;;;5.83;67.18
84255;BME280;74400;44.692;18.998;2024-02-04T06:50:10;100435.34;;;5.83;67.67
84255;BME280;74400;44.692;18.998;2024-02-04T06:52:40;100424.81;;;5.92;66.90
84255;BME280;74400;44.692;18.998;2024-02-04T06:55:06;100425.31;;;6.02;65.95
84255;BME280;74400;44.692;18.998;2024-02-04T06:57:31;100432.59;;;6.11;65.95
84255;BME280;74400;44.692;18.998;2024-02-04T06:59:57;100421.41;;;6.15;65.74
84255;BME280;74400;44.692;18.998;2024-02-04T07:02:23;100420.09;;;6.27;66.18
84255;BME280;74400;44.692;18.998;2024-02-04T07:04:48;100431.50;;;6.61;65.12
84255;BME280;74400;44.692;18.998;2024-02-04T07:07:14;100440.53;;;6.90;63.71
84255;BME280;74400;44.692;18.998;2024-02-04T07:09:40;100438.56;;;6.96;63.31
84255;BME280;74400;44.692;18.998;2024-02-04T07:12:05;100447.31;;;6.91;64.28
84255;BME280;74400;44.692;18.998;2024-02-04T07:14:31;100445.75;;;6.87;64.08
84255;BME280;74400;44.692;18.998;2024-02-04T07:16:57;100447.16;;;6.73;63.55
84255;BME280;74400;44.692;18.998;2024-02-04T07:19:23;100449.81;;;6.92;63.67
84255;BME280;74400;44.692;18.998;2024-02-04T07:21:48;100453.44;;;7.07;63.44
84255;BME280;74400;44.692;18.998;2024-02-04T07:24:14;100452.78;;;7.22;62.71
84255;BME280;74400;44.692;18.998;2024-02-04T07:26:40;100458.75;;;7.23;62.90
84255;BME280;74400;44.692;18.998;2024-02-04T07:29:05;100454.41;;;7.04;64.36
84255;BME280;74400;44.692;18.998;2024-02-04T07:31:31;100453.06;;;6.96;64.36
84255;BME280;74400;44.692;18.998;2024-02-04T07:33:56;100458.13;;;6.97;64.52
84255;BME280;74400;44.692;18.998;2024-02-04T07:36:22;100474.72;;;7.07;63.89
84255;BME280;74400;44.692;18.998;2024-02-04T07:38:48;100481.06;;;7.19;63.79
84255;BME280;74400;44.692;18.998;2024-02-04T07:41:14;100473.19;;;7.24;62.69
84255;BME280;74400;44.692;18.998;2024-02-04T07:43:41;100470.81;;;7.19;63.41
84255;BME280;74400;44.692;18.998;2024-02-04T07:46:08;100476.72;;;7.21;64.61
84255;BME280;74400;44.692;18.998;2024-02-04T07:48:34;100479.63;;;7.32;63.86
84255;BME280;74400;44.692;18.998;2024-02-04T07:50:59;100471.00;;;7.35;64.34
84255;BME280;74400;44.692;18.998;2024-02-04T07:53:25;100466.94;;;7.50;63.36
84255;BME280;74400;44.692;18.998;2024-02-04T07:55:51;100467.38;;;7.78;62.90
84255;BME280;74400;44.692;18.998;2024-02-04T07:58:17;100465.50;;;8.01;61.76
84255;BME280;74400;44.692;18.998;2024-02-04T08:00:42;100467.34;;;8.16;61.94
84255;BME280;74400;44.692;18.998;2024-02-04T08:03:08;100470.50;;;8.59;59.44
84255;BME280;74400;44.692;18.998;2024-02-04T08:05:34;100462.97;;;8.90;58.81
84255;BME280;74400;44.692;18.998;2024-02-04T08:08:01;100461.22;;;9.41;58.93
84255;BME280;74400;44.692;18.998;2024-02-04T08:10:27;100458.13;;;9.84;57.02
84255;BME280;74400;44.692;18.998;2024-02-04T08:12:53;100462.78;;;10.09;55.76
84255;BME280;74400;44.692;18.998;2024-02-04T08:15:20;100459.28;;;11.01;53.74
84255;BME280;74400;44.692;18.998;2024-02-04T08:17:46;100476.81;;;12.36;50.22
84255;BME280;74400;44.692;18.998;2024-02-04T08:20:12;100480.81;;;12.54;48.94
84255;BME280;74400;44.692;18.998;2024-02-04T08:22:37;100486.78;;;13.07;47.08
84255;BME280;74400;44.692;18.998;2024-02-04T08:25:06;100496.78;;;15.19;42.48
84255;BME280;74400;44.692;18.998;2024-02-04T08:27:32;100485.88;;;16.90;39.11
84255;BME280;74400;44.692;18.998;2024-02-04T08:29:58;100491.88;;;18.03;36.44
84255;BME280;74400;44.692;18.998;2024-02-04T08:32:23;100496.16;;;18.24;35.58
84255;BME280;74400;44.692;18.998;2024-02-04T08:34:49;100485.22;;;18.78;35.40
84255;BME280;74400;44.692;18.998;2024-02-04T08:37:15;100500.56;;;19.38;33.63
84255;BME280;74400;44.692;18.998;2024-02-04T08:39:40;100498.28;;;20.17;32.53
84255;BME280;74400;44.692;18.998;2024-02-04T08:42:06;100493.75;;;21.51;29.87
84255;BME280;74400;44.692;18.998;2024-02-04T08:44:32;100484.00;;;21.01;30.06
84255;BME280;74400;44.692;18.998;2024-02-04T08:46:57;100486.59;;;20.57;30.87
84255;BME280;74400;44.692;18.998;2024-02-04T08:49:23;100490.34;;;19.91;31.68
84255;BME280;74400;44.692;18.998;2024-02-04T08:51:49;100473.28;;;18.76;32.69
84255;BME280;74400;44.692;18.998;2024-02-04T08:54:14;100477.34;;;17.60;34.77
84255;BME280;74400;44.692;18.998;2024-02-04T08:56:40;100457.53;;;16.87;36.58
84255;BME280;74400;44.692;18.998;2024-02-04T08:59:06;100458.09;;;17.12;37.04
84255;BME280;74400;44.692;18.998;2024-02-04T09:01:32;100456.78;;;17.57;35.51
84255;BME280;74400;44.692;18.998;2024-02-04T09:03:57;100456.66;;;18.86;33.27
84255;BME280;74400;44.692;18.998;2024-02-04T09:06:23;100451.78;;;20.39;30.92
84255;BME280;74400;44.692;18.998;2024-02-04T09:08:48;100468.72;;;21.99;28.25
84255;BME280;74400;44.692;18.998;2024-02-04T09:11:15;100461.94;;;22.22;27.51
84255;BME280;74400;44.692;18.998;2024-02-04T09:13:47;100475.97;;;22.13;28.14
84255;BME280;74400;44.692;18.998;2024-02-04T09:16:13;100474.28;;;21.96;28.30
84255;BME280;74400;44.692;18.998;2024-02-04T09:18:38;100463.06;;;22.20;28.45
84255;BME280;74400;44.692;18.998;2024-02-04T09:21:04;100474.72;;;22.41;27.99
84255;BME280;74400;44.692;18.998;2024-02-04T09:23:30;100478.31;;;22.24;27.98
84255;BME280;74400;44.692;18.998;2024-02-04T09:25:55;100497.09;;;21.61;28.88
84255;BME280;74400;44.692;18.998;2024-02-04T09:28:21;100495.31;;;22.12;28.78
84255;BME280;74400;44.692;18.998;2024-02-04T09:30:47;100493.34;;;23.12;26.45
84255;BME280;74400;44.692;18.998;2024-02-04T09:33:14;100507.09;;;23.38;26.47
84255;BME280;74400;44.692;18.998;2024-02-04T09:35:40;100512.25;;;23.07;26.06
84255;BME280;74400;44.692;18.998;2024-02-04T09:38:05;100517.97;;;23.03;26.54
84255;BME280;74400;44.692;18.998;2024-02-04T09:40:31;100507.03;;;22.08;27.13
84255;BME280;74400;44.692;18.998;2024-02-04T09:42:58;100506.19;;;20.79;29.75
84255;BME280;74400;44.692;18.998;2024-02-04T09:45:24;100501.94;;;20.24;30.37
84255;BME280;74400;44.692;18.998;2024-02-04T09:47:51;100498.78;;;19.38;31.80
84255;BME280;74400;44.692;18.998;2024-02-04T09:50:21;100503.31;;;18.51;33.70
84255;BME280;74400;44.692;18.998;2024-02-04T09:55:20;100510.41;;;17.18;36.58
84255;BME280;74400;44.692;18.998;2024-02-04T09:57:46;100513.78;;;16.56;37.84
84255;BME280;74400;44.692;18.998;2024-02-04T10:00:13;100508.28;;;16.38;38.42
84255;BME280;74400;44.692;18.998;2024-02-04T10:02:40;100497.19;;;15.93;39.38
84255;BME280;74400;44.692;18.998;2024-02-04T10:05:07;100488.81;;;15.56;40.51
84255;BME280;74400;44.692;18.998;2024-02-04T10:07:34;100490.09;;;15.28;40.71
84255;BME280;74400;44.692;18.998;2024-02-04T10:10:00;100492.56;;;15.29;41.08
84255;BME280;74400;44.692;18.998;2024-02-04T10:12:26;100497.50;;;15.32;41.57
84255;BME280;74400;44.692;18.998;2024-02-04T10:14:52;100499.19;;;15.33;41.29
84255;BME280;74400;44.692;18.998;2024-02-04T10:17:18;100489.50;;;15.24;42.19
84255;BME280;74400;44.692;18.998;2024-02-04T10:19:47;100490.31;;;15.25;42.01
84255;BME280;74400;44.692;18.998;2024-02-04T10:22:13;100498.59;;;15.52;42.20
84255;BME280;74400;44.692;18.998;2024-02-04T10:24:39;100509.81;;;15.86;41.28
84255;BME280;74400;44.692;18.998;2024-02-04T10:27:05;100511.53;;;16.08;41.22
84255;BME280;74400;44.692;18.998;2024-02-04T10:29:30;100506.88;;;15.80;43.25
84255;BME280;74400;44.692;18.998;2024-02-04T10:31:57;100505.31;;;15.55;44.06
84255;BME280;74400;44.692;18.998;2024-02-04T10:34:26;100504.94;;;15.48;44.64
84255;BME280;74400;44.692;18.998;2024-02-04T10:39:18;100474.19;;;15.21;45.41
84255;BME280;74400;44.692;18.998;2024-02-04T10:41:51;100466.63;;;14.60;45.33
84255;BME280;74400;44.692;18.998;2024-02-04T10:44:23;100476.59;;;14.30;46.41
84255;BME280;74400;44.692;18.998;2024-02-04T10:46:50;100466.00;;;14.33;46.32
84255;BME280;74400;44.692;18.998;2024-02-04T10:49:18;100465.66;;;14.50;46.58
84255;BME280;74400;44.692;18.998;2024-02-04T10:51:45;100472.91;;;14.80;46.22
84255;BME280;74400;44.692;18.998;2024-02-04T10:54:16;100473.09;;;15.01;46.03
84255;BME280;74400;44.692;18.998;2024-02-04T10:56:45;100465.75;;;14.84;45.08
84255;BME280;74400;44.692;18.998;2024-02-04T10:59:13;100469.78;;;14.99;44.74
84255;BME280;74400;44.692;18.998;2024-02-04T11:01:43;100460.28;;;15.11;44.86
84255;BME280;74400;44.692;18.998;2024-02-04T11:04:10;100453.94;;;15.15;44.69
84255;BME280;74400;44.692;18.998;2024-02-04T11:06:37;100460.38;;;14.98;45.08
84255;BME280;74400;44.692;18.998;2024-02-04T11:09:06;100443.31;;;15.18;44.84
84255;BME280;74400;44.692;18.998;2024-02-04T11:11:38;100437.19;;;15.41;43.59
84255;BME280;74400;44.692;18.998;2024-02-04T11:14:09;100435.66;;;15.61;43.27
84255;BME280;74400;44.692;18.998;2024-02-04T11:19:44;100421.53;;;16.09;41.93
84255;BME280;74400;44.692;18.998;2024-02-04T11:22:51;100402.81;;;16.05;42.20
84255;BME280;74400;44.692;18.998;2024-02-04T11:28:05;100408.13;;;16.57;41.51
84255;BME280;74400;44.692;18.998;2024-02-04T11:30:35;100408.84;;;16.79;40.39
84255;BME280;74400;44.692;18.998;2024-02-04T11:33:03;100402.25;;;16.75;40.61
84255;BME280;74400;44.692;18.998;2024-02-04T11:35:29;100399.38;;;16.99;40.08
84255;BME280;74400;44.692;18.998;2024-02-04T11:37:55;100393.13;;;17.12;41.10
84255;BME280;74400;44.692;18.998;2024-02-04T11:40:21;100390.00;;;17.08;40.09
84255;BME280;74400;44.692;18.998;2024-02-04T11:42:49;100385.25;;;17.23;39.37
84255;BME280;74400;44.692;18.998;2024-02-04T11:45:16;100381.44;;;16.96;40.48
84255;BME280;74400;44.692;18.998;2024-02-04T11:47:42;100385.84;;;17.05;39.10
84255;BME280;74400;44.692;18.998;2024-02-04T11:50:08;100382.72;;;17.12;39.83
84255;BME280;74400;44.692;18.998;2024-02-04T11:52:34;100391.25;;;17.14;38.34
84255;BME280;74400;44.692;18.998;2024-02-04T11:55:00;100384.66;;;17.19;38.23
84255;BME280;74400;44.692;18.998;2024-02-04T11:57:26;100376.78;;;17.21;38.40
84255;BME280;74400;44.692;18.998;2024-02-04T12:02:19;100366.25;;;16.92;38.39
84255;BME280;74400;44.692;18.998;2024-02-04T12:04:46;100355.84;;;16.92;38.18
84255;BME280;74400;44.692;18.998;2024-02-04T12:07:13;100356.44;;;16.53;39.10
84255;BME280;74400;44.692;18.998;2024-02-04T12:09:40;100339.78;;;16.35;39.53
84255;BME280;74400;44.692;18.998;2024-02-04T12:12:06;100326.63;;;16.27;39.88
84255;BME280;74400;44.692;18.998;2024-02-04T12:14:35;100330.13;;;16.37;39.91
84255;BME280;74400;44.692;18.998;2024-02-04T12:17:10;100319.59;;;16.39;39.88
84255;BME280;74400;44.692;18.998;2024-02-04T12:19:37;100319.22;;;16.43;39.38
84255;BME280;74400;44.692;18.998;2024-02-04T12:22:04;100313.41;;;16.30;39.89
84255;BME280;74400;44.692;18.998;2024-02-04T12:24:38;100315.78;;;16.22;39.63
84255;BME280;74400;44.692;18.998;2024-02-04T12:27:04;100323.66;;;16.11;39.50
84255;BME280;74400;44.692;18.998;2024-02-04T12:29:31;100317.38;;;15.92;40.94
84255;BME280;74400;44.692;18.998;2024-02-04T12:32:01;100319.50;;;15.87;40.39
84255;BME280;74400;44.692;18.998;2024-02-04T12:34:29;100331.88;;;15.84;40.68
84255;BME280;74400;44.692;18.998;2024-02-04T12:36:58;100329.75;;;15.89;40.92
84255;BME280;74400;44.692;18.998;2024-02-04T12:39:25;100330.06;;;15.95;40.38
84255;BME280;74400;44.692;18.998;2024-02-04T12:41:51;100323.94;;;15.96;40.58
84255;BME280;74400;44.692;18.998;2024-02-04T12:44:20;100319.47;;;15.98;40.37
84255;BME280;74400;44.692;18.998;2024-02-04T12:46:50;100317.84;;;15.97;40.43
84255;BME280;74400;44.692;18.998;2024-02-04T12:49:19;100304.97;;;15.96;39.94
84255;BME280;74400;44.692;18.998;2024-02-04T12:51:46;100291.31;;;15.94;40.13
84255;BME280;74400;44.692;18.998;2024-02-04T12:54:12;100304.84;;;15.97;39.78
84255;BME280;74400;44.692;18.998;2024-02-04T12:59:32;100303.09;;;16.19;39.43
84255;BME280;74400;44.692;18.998;2024-02-04T13:02:03;100312.31;;;16.33;39.20
84255;BME280;74400;44.692;18.998;2024-02-04T13:04:48;100311.53;;;16.42;38.96
84255;BME280;74400;44.692;18.998;2024-02-04T13:07:14;100300.09;;;16.44;39.00
84255;BME280;74400;44.692;18.998;2024-02-04T13:09:42;100305.03;;;16.47;38.71